createdAt,value
2017-08-22T00:00:23.542Z,22.80
2017-08-22T00:02:51.017Z,22.80
2017-08-22T00:05:18.487Z,22.80
2017-08-22T00:07:45.953Z,22.70
2017-08-22T00:10:13.397Z,22.70
2017-08-22T00:12:40.859Z,22.70
2017-08-22T00:15:08.310Z,22.70
2017-08-22T00:17:35.762Z,22.60
2017-08-22T00:20:03.208Z,22.60
2017-08-22T00:22:30.669Z,22.60
2017-08-22T00:24:58.126Z,22.60
2017-08-22T00:27:25.613Z,22.50
2017-08-22T00:29:53.057Z,22.50
2017-08-22T00:32:20.526Z,22.50
2017-08-22T00:34:47.969Z,22.50
2017-08-22T00:37:15.435Z,22.50
2017-08-22T00:39:42.901Z,22.40
2017-08-22T00:42:10.354Z,22.40
2017-08-22T00:44:37.824Z,22.40
2017-08-22T00:47:05.274Z,22.40
2017-08-22T00:49:32.726Z,22.40
2017-08-22T00:52:00.190Z,22.30
2017-08-22T00:54:27.650Z,22.30
2017-08-22T00:56:55.106Z,22.30
2017-08-22T00:59:22.566Z,22.20
2017-08-22T01:01:50.033Z,22.20
2017-08-22T01:04:17.501Z,22.20
2017-08-22T01:06:44.953Z,22.10
2017-08-22T01:09:12.409Z,22.10
2017-08-22T01:11:39.872Z,22.10
2017-08-22T01:14:07.347Z,22.10
2017-08-22T01:16:34.803Z,22.10
2017-08-22T01:19:02.242Z,22.10
2017-08-22T01:21:29.702Z,22.00
2017-08-22T01:23:57.142Z,22.00
2017-08-22T01:26:24.621Z,22.00
2017-08-22T01:28:52.069Z,22.00
2017-08-22T01:31:19.529Z,22.00
2017-08-22T01:33:46.981Z,21.90
2017-08-22T01:36:14.498Z,21.90
2017-08-22T01:38:41.962Z,21.90
2017-08-22T01:41:09.418Z,21.90
2017-08-22T01:43:36.893Z,21.90
2017-08-22T01:46:04.405Z,21.90
2017-08-22T01:48:31.876Z,21.80
2017-08-22T01:50:59.342Z,21.80
2017-08-22T01:53:26.799Z,21.80
2017-08-22T01:55:54.255Z,21.80
2017-08-22T01:58:21.733Z,21.80
2017-08-22T02:00:49.168Z,21.70
2017-08-22T02:03:16.657Z,21.70
2017-08-22T02:05:44.138Z,21.70
2017-08-22T02:08:11.590Z,21.70
2017-08-22T02:10:39.070Z,21.70
2017-08-22T02:13:06.523Z,21.70
2017-08-22T02:15:33.966Z,21.70
2017-08-22T02:18:01.422Z,21.60
2017-08-22T02:20:28.885Z,21.60
2017-08-22T02:22:56.339Z,21.60
2017-08-22T02:25:23.790Z,21.60
2017-08-22T02:27:51.262Z,21.60
2017-08-22T02:30:18.714Z,21.50
2017-08-22T02:32:46.169Z,21.50
2017-08-22T02:35:13.623Z,21.50
2017-08-22T02:38:06.155Z,21.50
2017-08-22T02:40:33.638Z,21.50
2017-08-22T02:43:01.103Z,21.40
2017-08-22T02:45:28.559Z,21.40
2017-08-22T02:47:56.010Z,21.40
2017-08-22T02:50:23.492Z,21.40
2017-08-22T02:52:50.957Z,21.40
2017-08-22T02:55:18.423Z,21.40
2017-08-22T02:57:45.875Z,21.30
2017-08-22T03:00:13.325Z,21.30
2017-08-22T03:02:40.774Z,21.30
2017-08-22T03:05:08.230Z,21.30
2017-08-22T03:07:35.699Z,21.30
2017-08-22T03:10:03.164Z,21.20
2017-08-22T03:12:30.629Z,21.20
2017-08-22T03:14:58.854Z,21.20
2017-08-22T03:17:26.303Z,21.20
2017-08-22T03:19:53.743Z,21.20
2017-08-22T03:22:21.226Z,21.20
2017-08-22T03:24:48.670Z,21.20
2017-08-22T03:27:16.166Z,21.10
2017-08-22T03:29:43.646Z,21.10
2017-08-22T03:32:11.125Z,21.10
2017-08-22T03:34:38.588Z,21.10
2017-08-22T03:37:06.063Z,21.10
2017-08-22T03:39:33.507Z,21.00
2017-08-22T03:42:00.968Z,21.00
2017-08-22T03:44:28.434Z,21.00
2017-08-22T03:46:55.878Z,21.00
2017-08-22T03:49:23.326Z,21.00
2017-08-22T03:51:50.774Z,21.00
2017-08-22T03:54:18.225Z,20.90
2017-08-22T03:56:45.683Z,20.90
2017-08-22T03:59:13.131Z,20.90
2017-08-22T04:01:40.646Z,20.90
2017-08-22T04:04:08.096Z,20.90
2017-08-22T04:06:35.576Z,20.80
2017-08-22T04:09:03.045Z,20.80
2017-08-22T04:11:30.494Z,20.80
2017-08-22T04:13:57.957Z,20.80
2017-08-22T04:16:25.414Z,20.80
2017-08-22T04:18:52.871Z,20.80
2017-08-22T04:21:20.332Z,20.80
2017-08-22T04:23:47.797Z,20.80
2017-08-22T04:26:15.299Z,20.70
2017-08-22T04:28:42.749Z,20.70
2017-08-22T04:31:10.233Z,20.70
2017-08-22T04:33:37.686Z,20.70
2017-08-22T04:36:05.135Z,20.60
2017-08-22T04:38:32.597Z,20.70
2017-08-22T04:41:00.057Z,20.60
2017-08-22T04:43:27.514Z,20.60
2017-08-22T04:45:54.971Z,20.60
2017-08-22T04:48:22.445Z,20.60
2017-08-22T04:50:49.899Z,20.60
2017-08-22T04:53:17.358Z,20.60
2017-08-22T04:55:44.947Z,20.60
2017-08-22T04:58:12.391Z,20.60
2017-08-22T05:00:39.863Z,20.60
2017-08-22T05:03:07.302Z,20.60
2017-08-22T05:05:34.786Z,20.60
2017-08-22T05:08:02.233Z,20.60
2017-08-22T05:10:29.710Z,20.60
2017-08-22T05:12:57.145Z,20.60
2017-08-22T05:15:24.617Z,20.60
2017-08-22T05:17:52.065Z,20.60
2017-08-22T05:20:19.514Z,20.60
2017-08-22T05:22:46.994Z,20.60
2017-08-22T05:25:14.433Z,20.50
2017-08-22T05:27:41.887Z,20.60
2017-08-22T05:30:09.341Z,20.50
2017-08-22T05:32:36.799Z,20.50
2017-08-22T05:35:04.249Z,20.60
2017-08-22T05:37:31.721Z,20.60
2017-08-22T05:39:59.168Z,20.60
2017-08-22T05:42:26.629Z,20.60
2017-08-22T05:44:54.110Z,20.60
2017-08-22T05:47:21.552Z,20.60
2017-08-22T05:49:49.000Z,20.60
2017-08-22T05:52:16.474Z,20.60
2017-08-22T05:54:43.917Z,20.60
2017-08-22T05:57:11.390Z,20.60
2017-08-22T05:59:38.867Z,20.60
2017-08-22T06:02:06.317Z,20.70
2017-08-22T06:04:33.758Z,20.60
2017-08-22T06:07:01.222Z,20.70
2017-08-22T06:09:29.264Z,20.70
2017-08-22T06:11:56.717Z,20.70
2017-08-22T06:14:24.175Z,20.80
2017-08-22T06:16:51.651Z,20.80
2017-08-22T06:19:19.102Z,20.80
2017-08-22T06:21:46.546Z,20.80
2017-08-22T06:24:14.016Z,20.90
2017-08-22T06:26:41.466Z,20.90
2017-08-22T06:29:08.917Z,20.90
2017-08-22T06:31:36.374Z,20.90
2017-08-22T06:34:03.854Z,20.90
2017-08-22T06:36:31.307Z,20.90
2017-08-22T06:38:58.763Z,21.00
2017-08-22T06:41:26.207Z,21.00
2017-08-22T06:43:53.667Z,21.10
2017-08-22T06:46:21.118Z,21.10
2017-08-22T06:48:48.573Z,21.10
2017-08-22T06:51:16.034Z,21.10
2017-08-22T06:53:43.498Z,21.20
2017-08-22T06:56:10.950Z,21.20
2017-08-22T06:58:38.394Z,21.30
2017-08-22T07:01:05.874Z,21.40
2017-08-22T07:03:33.344Z,21.50
2017-08-22T07:06:00.834Z,21.50
2017-08-22T07:08:28.282Z,21.50
2017-08-22T07:10:55.754Z,21.60
2017-08-22T07:13:23.219Z,21.60
2017-08-22T07:15:50.713Z,21.70
2017-08-22T07:18:18.153Z,21.80
2017-08-22T07:20:45.613Z,21.80
2017-08-22T07:23:13.062Z,21.90
2017-08-22T07:25:40.554Z,22.00
2017-08-22T07:28:08.007Z,22.00
2017-08-22T07:30:35.464Z,22.10
2017-08-22T07:33:02.995Z,22.20
2017-08-22T07:35:30.452Z,22.30
2017-08-22T07:37:57.900Z,22.40
2017-08-22T07:40:25.381Z,22.50
2017-08-22T07:42:52.852Z,22.60
2017-08-22T07:45:20.346Z,22.80
2017-08-22T07:47:47.812Z,22.90
2017-08-22T07:50:15.257Z,23.00
2017-08-22T07:52:42.733Z,23.00
2017-08-22T07:55:10.185Z,23.20
2017-08-22T07:57:37.712Z,23.40
2017-08-22T08:00:05.170Z,23.50
2017-08-22T08:02:32.650Z,23.60
2017-08-22T08:05:00.097Z,23.80
2017-08-22T08:07:27.550Z,24.00
2017-08-22T08:09:55.021Z,24.10
2017-08-22T08:12:22.466Z,24.30
2017-08-22T08:14:49.921Z,24.50
2017-08-22T08:17:17.386Z,24.60
2017-08-22T08:19:44.833Z,24.80
2017-08-22T08:22:12.302Z,25.00
2017-08-22T08:24:39.777Z,25.20
2017-08-22T08:27:07.225Z,25.30
2017-08-22T08:29:34.708Z,25.50
2017-08-22T08:32:02.147Z,25.70
2017-08-22T08:34:29.632Z,25.90
2017-08-22T08:36:57.110Z,26.10
2017-08-22T08:39:24.590Z,26.20
2017-08-22T08:41:52.035Z,26.50
2017-08-22T08:44:19.499Z,26.60
2017-08-22T08:46:46.973Z,26.80
2017-08-22T08:49:14.448Z,27.00
2017-08-22T08:51:41.906Z,27.20
2017-08-22T08:54:09.362Z,27.40
2017-08-22T08:56:36.814Z,27.60
2017-08-22T08:59:04.279Z,27.80
2017-08-22T09:01:31.755Z,28.00
2017-08-22T09:03:59.206Z,28.20
2017-08-22T09:06:26.646Z,28.40
2017-08-22T09:08:54.146Z,28.50
2017-08-22T09:11:21.601Z,28.80
2017-08-22T09:13:49.049Z,28.90
2017-08-22T09:16:16.525Z,29.00
2017-08-22T09:18:43.992Z,29.20
2017-08-22T09:21:11.442Z,29.40
2017-08-22T09:23:38.944Z,29.60
2017-08-22T09:26:06.393Z,29.90
2017-08-22T09:28:33.899Z,30.10
2017-08-22T09:31:01.347Z,30.30
2017-08-22T09:33:28.803Z,30.50
2017-08-22T09:35:56.255Z,30.70
2017-08-22T09:38:23.701Z,30.80
2017-08-22T09:40:51.206Z,30.90
2017-08-22T09:43:18.673Z,31.10
2017-08-22T09:45:46.134Z,31.30
2017-08-22T09:48:13.604Z,31.40
2017-08-22T09:50:41.086Z,31.30
2017-08-22T09:53:08.536Z,31.10
2017-08-22T09:55:36.017Z,31.00
2017-08-22T09:58:03.493Z,31.20
2017-08-22T10:00:30.944Z,31.50
2017-08-22T10:02:58.414Z,31.70
2017-08-22T10:05:25.865Z,31.50
2017-08-22T10:07:53.313Z,31.50
2017-08-22T10:10:20.760Z,31.70
2017-08-22T10:12:48.210Z,31.90
2017-08-22T10:15:15.674Z,32.30
2017-08-22T10:17:43.141Z,32.50
2017-08-22T10:20:10.591Z,32.80
2017-08-22T10:22:38.051Z,33.10
2017-08-22T10:25:05.542Z,33.30
2017-08-22T10:27:32.995Z,33.60
2017-08-22T10:30:00.470Z,33.80
2017-08-22T10:32:27.937Z,34.00
2017-08-22T10:34:55.411Z,34.10
2017-08-22T10:37:22.857Z,34.30
2017-08-22T10:39:50.314Z,34.50
2017-08-22T10:42:17.752Z,34.60
2017-08-22T10:44:45.198Z,34.80
2017-08-22T10:47:12.651Z,35.00
2017-08-22T10:49:40.121Z,35.20
2017-08-22T10:52:07.566Z,35.10
2017-08-22T10:54:35.031Z,35.20
2017-08-22T10:57:02.486Z,34.90
2017-08-22T10:59:29.966Z,34.80
2017-08-22T11:01:57.444Z,35.00
2017-08-22T11:04:24.914Z,35.10
2017-08-22T11:06:52.402Z,34.90
2017-08-22T11:09:20.110Z,34.90
2017-08-22T11:11:47.787Z,34.60
2017-08-22T11:14:15.290Z,34.50
2017-08-22T11:16:42.735Z,34.50
2017-08-22T11:19:10.197Z,34.50
2017-08-22T11:21:37.678Z,34.50
2017-08-22T11:24:05.154Z,34.30
2017-08-22T11:26:32.599Z,34.10
2017-08-22T11:29:00.043Z,33.90
2017-08-22T11:31:27.502Z,33.60
2017-08-22T11:33:54.966Z,33.40
2017-08-22T11:36:22.424Z,33.20
2017-08-22T11:38:49.866Z,33.10
2017-08-22T11:41:17.337Z,32.90
2017-08-22T11:43:44.782Z,32.80
2017-08-22T11:46:12.251Z,32.70
2017-08-22T11:48:39.693Z,33.10
2017-08-22T11:51:07.150Z,33.50
2017-08-22T11:53:34.602Z,33.90
2017-08-22T11:56:02.057Z,34.40
2017-08-22T11:58:29.523Z,34.70
2017-08-22T12:00:56.998Z,34.90
2017-08-22T12:03:24.443Z,34.70
2017-08-22T12:05:51.896Z,34.40
2017-08-22T12:08:19.365Z,34.20
2017-08-22T12:10:46.833Z,34.60
2017-08-22T12:13:14.298Z,35.00
2017-08-22T12:15:41.762Z,35.40
2017-08-22T12:18:09.231Z,35.80
2017-08-22T12:20:36.695Z,36.10
2017-08-22T12:23:04.177Z,36.40
2017-08-22T12:25:31.654Z,36.60
2017-08-22T12:27:59.108Z,36.80
2017-08-22T12:30:26.559Z,37.20
2017-08-22T12:32:54.041Z,37.40
2017-08-22T12:35:21.538Z,37.60
2017-08-22T12:37:48.989Z,37.50
2017-08-22T12:40:16.471Z,37.40
2017-08-22T12:42:43.918Z,37.00
2017-08-22T12:45:11.374Z,36.70
2017-08-22T12:47:38.846Z,36.30
2017-08-22T12:50:06.304Z,36.00
2017-08-22T12:52:33.767Z,35.70
2017-08-22T12:55:01.242Z,35.50
2017-08-22T12:57:28.709Z,35.50
2017-08-22T12:59:56.152Z,35.70
2017-08-22T13:02:23.610Z,35.60
2017-08-22T13:04:51.064Z,35.50
2017-08-22T13:07:18.530Z,35.40
2017-08-22T13:09:46.004Z,35.10
2017-08-22T13:12:13.454Z,35.00
2017-08-22T13:14:40.906Z,34.90
2017-08-22T13:17:08.352Z,35.20
2017-08-22T13:19:35.798Z,35.60
2017-08-22T13:22:03.274Z,35.90
2017-08-22T13:24:30.737Z,35.80
2017-08-22T13:26:58.213Z,35.60
2017-08-22T13:29:25.671Z,35.40
2017-08-22T13:31:53.118Z,35.40
2017-08-22T13:34:20.577Z,35.30
2017-08-22T13:36:48.030Z,35.00
2017-08-22T13:39:15.499Z,34.80
2017-08-22T13:41:42.938Z,34.60
2017-08-22T13:44:10.397Z,34.40
2017-08-22T13:46:37.844Z,34.30
2017-08-22T13:49:05.313Z,34.60
2017-08-22T13:51:32.767Z,34.80
2017-08-22T13:54:00.222Z,35.00
2017-08-22T13:56:27.681Z,35.20
2017-08-22T13:58:55.156Z,35.50
2017-08-22T14:01:22.614Z,35.70
2017-08-22T14:03:50.071Z,35.80
2017-08-22T14:06:17.525Z,35.90
2017-08-22T14:08:44.990Z,36.00
2017-08-22T14:11:12.456Z,36.10
2017-08-22T14:13:39.910Z,36.10
2017-08-22T14:16:07.372Z,36.10
2017-08-22T14:18:34.842Z,36.10
2017-08-22T14:21:02.294Z,36.10
2017-08-22T14:23:29.762Z,36.20
2017-08-22T14:25:57.238Z,36.20
2017-08-22T14:28:24.686Z,36.20
2017-08-22T14:30:52.142Z,36.10
2017-08-22T14:33:19.602Z,36.00
2017-08-22T14:35:47.070Z,36.00
2017-08-22T14:38:14.568Z,36.00
2017-08-22T14:40:42.066Z,35.80
2017-08-22T14:43:09.527Z,35.80
2017-08-22T14:45:36.994Z,35.80
2017-08-22T14:48:04.438Z,35.80
2017-08-22T14:50:31.886Z,35.80
2017-08-22T14:52:59.345Z,35.70
2017-08-22T14:55:26.823Z,35.70
2017-08-22T14:57:54.288Z,35.70
2017-08-22T15:00:21.722Z,35.60
2017-08-22T15:02:49.198Z,35.60
2017-08-22T15:05:16.668Z,35.50
2017-08-22T15:07:44.115Z,35.50
2017-08-22T15:10:11.567Z,35.40
2017-08-22T15:12:39.029Z,35.40
2017-08-22T15:15:06.485Z,35.20
2017-08-22T15:17:33.995Z,34.90
2017-08-22T15:20:01.459Z,34.80
2017-08-22T15:22:28.901Z,34.70
2017-08-22T15:24:56.370Z,34.60
2017-08-22T15:27:23.825Z,34.40
2017-08-22T15:29:51.279Z,34.20
2017-08-22T15:32:18.730Z,34.20
2017-08-22T15:34:46.185Z,34.00
2017-08-22T15:37:13.648Z,33.90
2017-08-22T15:39:41.148Z,33.90
2017-08-22T15:42:08.602Z,33.70
2017-08-22T15:44:36.058Z,33.70
2017-08-22T15:47:03.510Z,33.50
2017-08-22T15:49:30.995Z,33.40
2017-08-22T15:51:58.470Z,33.30
2017-08-22T15:54:25.986Z,33.20
2017-08-22T15:56:53.465Z,33.10
2017-08-22T15:59:20.924Z,32.90
2017-08-22T16:01:48.379Z,32.80
2017-08-22T16:04:15.882Z,32.80
2017-08-22T16:06:43.335Z,32.60
2017-08-22T16:09:10.798Z,32.50
2017-08-22T16:11:38.251Z,32.40
2017-08-22T16:14:05.687Z,32.30
2017-08-22T16:16:33.144Z,32.20
2017-08-22T16:19:00.592Z,32.10
2017-08-22T16:21:28.042Z,32.00
2017-08-22T16:23:55.487Z,31.90
2017-08-22T16:26:22.957Z,31.80
2017-08-22T16:28:50.405Z,31.70
2017-08-22T16:31:17.875Z,31.60
2017-08-22T16:33:45.324Z,31.60
2017-08-22T16:36:12.795Z,31.50
2017-08-22T16:38:40.247Z,31.40
2017-08-22T16:41:07.697Z,31.30
2017-08-22T16:43:35.151Z,31.30
2017-08-22T16:46:02.609Z,31.20
2017-08-22T16:48:30.073Z,31.20
2017-08-22T16:50:57.553Z,31.10
2017-08-22T16:53:24.999Z,31.00
2017-08-22T16:55:52.458Z,30.90
2017-08-22T16:58:19.915Z,30.90
2017-08-22T17:00:47.381Z,30.80
2017-08-22T17:03:14.830Z,30.70
2017-08-22T17:05:42.277Z,30.70
2017-08-22T17:08:09.738Z,30.60
2017-08-22T17:10:37.209Z,30.50
2017-08-22T17:13:04.672Z,30.50
2017-08-22T17:15:32.125Z,30.40
2017-08-22T17:17:59.605Z,30.40
2017-08-22T17:20:27.090Z,30.30
2017-08-22T17:22:54.559Z,30.30
2017-08-22T17:25:22.014Z,30.20
2017-08-22T17:27:49.474Z,30.10
2017-08-22T17:30:16.939Z,30.00
2017-08-22T17:32:44.425Z,30.00
2017-08-22T17:35:11.888Z,29.90
2017-08-22T17:37:39.336Z,29.80
2017-08-22T17:40:06.792Z,29.80
2017-08-22T17:42:34.261Z,29.70
2017-08-22T17:45:01.780Z,29.70
2017-08-22T17:47:29.271Z,29.60
2017-08-22T17:49:56.739Z,29.50
2017-08-22T17:52:24.207Z,29.50
2017-08-22T17:54:52.429Z,29.40
2017-08-22T17:57:19.883Z,29.30
2017-08-22T17:59:47.338Z,29.30
2017-08-22T18:02:14.818Z,29.20
2017-08-22T18:04:42.263Z,29.20
2017-08-22T18:07:09.737Z,29.10
2017-08-22T18:09:37.209Z,29.10
2017-08-22T18:12:04.666Z,29.00
2017-08-22T18:14:32.117Z,28.90
2017-08-22T18:16:59.586Z,28.90
2017-08-22T18:19:27.053Z,28.80
2017-08-22T18:21:54.519Z,28.70
2017-08-22T18:24:21.977Z,28.60
2017-08-22T18:26:49.430Z,28.60
2017-08-22T18:29:16.912Z,28.50
2017-08-22T18:31:44.344Z,28.50
2017-08-22T18:34:11.800Z,28.40
2017-08-22T18:36:39.274Z,28.30
2017-08-22T18:39:06.727Z,28.30
2017-08-22T18:41:34.196Z,28.20
2017-08-22T18:46:35.567Z,28.10
2017-08-22T18:49:03.028Z,28.00
2017-08-22T18:51:30.486Z,27.90
2017-08-22T18:53:57.962Z,27.90
2017-08-22T18:56:25.437Z,27.80
2017-08-22T18:58:52.904Z,27.80
2017-08-22T19:01:20.346Z,27.70
2017-08-22T19:03:47.832Z,27.60
2017-08-22T19:06:15.295Z,27.60
2017-08-22T19:08:42.748Z,27.60
2017-08-22T19:11:10.202Z,27.50
2017-08-22T19:13:37.658Z,27.50
2017-08-22T19:16:05.114Z,27.40
2017-08-22T19:18:32.570Z,27.40
2017-08-22T19:21:00.014Z,27.30
2017-08-22T19:23:27.480Z,27.30
2017-08-22T19:25:54.961Z,27.20
2017-08-22T19:28:22.418Z,27.10
2017-08-22T19:30:49.894Z,27.10
2017-08-22T19:33:17.371Z,27.10
2017-08-22T19:35:44.822Z,27.00
2017-08-22T19:38:12.286Z,27.00
2017-08-22T19:40:39.744Z,26.90
2017-08-22T19:43:07.240Z,26.90
2017-08-22T19:45:34.698Z,26.80
2017-08-22T19:48:02.173Z,26.80
2017-08-22T19:50:29.621Z,26.70
2017-08-22T19:52:57.068Z,26.70
2017-08-22T19:55:24.534Z,26.70
2017-08-22T19:57:51.997Z,26.60
2017-08-22T20:00:19.470Z,26.60
2017-08-22T20:02:46.919Z,26.50
2017-08-22T20:05:14.372Z,26.50
2017-08-22T20:07:41.843Z,26.40
2017-08-22T20:10:09.311Z,26.40
2017-08-22T20:12:36.757Z,26.40
2017-08-22T20:15:04.230Z,26.30
2017-08-22T20:17:31.698Z,26.30
2017-08-22T20:19:59.137Z,26.20
2017-08-22T20:22:26.705Z,26.10
2017-08-22T20:24:54.175Z,26.10
2017-08-22T20:27:21.671Z,26.10
2017-08-22T20:29:49.141Z,26.00
2017-08-22T20:32:16.619Z,26.00
2017-08-22T20:34:44.073Z,26.00
2017-08-22T20:37:11.541Z,25.90
2017-08-22T20:39:39.021Z,25.90
2017-08-22T20:42:06.478Z,25.90
2017-08-22T20:44:33.926Z,25.80
2017-08-22T20:47:01.407Z,25.80
2017-08-22T20:49:28.874Z,25.70
2017-08-22T20:51:56.366Z,25.70
2017-08-22T20:54:23.823Z,25.70
2017-08-22T20:56:51.343Z,25.60
2017-08-22T20:59:18.798Z,25.60
2017-08-22T21:01:46.272Z,25.60
2017-08-22T21:04:13.714Z,25.50
2017-08-22T21:06:41.196Z,25.50
2017-08-22T21:09:08.641Z,25.40
2017-08-22T21:11:36.081Z,25.40
2017-08-22T21:14:03.558Z,25.40
2017-08-22T21:16:31.012Z,25.40
2017-08-22T21:18:58.483Z,25.30
2017-08-22T21:21:26.729Z,25.20
2017-08-22T21:23:54.218Z,25.20
2017-08-22T21:26:21.661Z,25.20
2017-08-22T21:28:49.141Z,25.20
2017-08-22T21:31:16.585Z,25.10
2017-08-22T21:33:44.055Z,25.10
2017-08-22T21:36:12.262Z,25.00
2017-08-22T21:38:39.722Z,25.00
2017-08-22T21:41:07.174Z,25.00
2017-08-22T21:43:34.619Z,25.00
2017-08-22T21:46:02.080Z,24.90
2017-08-22T21:48:29.540Z,24.90
2017-08-22T21:50:56.982Z,24.90
2017-08-22T21:53:24.448Z,24.80
2017-08-22T21:55:51.895Z,24.80
2017-08-22T21:58:19.356Z,24.80
2017-08-22T22:00:46.815Z,24.70
2017-08-22T22:03:14.269Z,24.70
2017-08-22T22:05:41.725Z,24.70
2017-08-22T22:08:09.181Z,24.70
2017-08-22T22:10:36.666Z,24.60
2017-08-22T22:13:04.163Z,24.60
2017-08-22T22:15:31.617Z,24.60
2017-08-22T22:17:59.111Z,24.50
2017-08-22T22:20:26.589Z,24.50
2017-08-22T22:22:54.058Z,24.50
2017-08-22T22:25:21.533Z,24.40
2017-08-22T22:27:49.001Z,24.40
2017-08-22T22:30:16.469Z,24.40
2017-08-22T22:32:43.933Z,24.30
2017-08-22T22:35:11.374Z,24.30
2017-08-22T22:37:38.849Z,24.30
2017-08-22T22:40:07.079Z,24.20
2017-08-22T22:42:34.534Z,24.20
2017-08-22T22:45:01.977Z,24.20
2017-08-22T22:47:29.463Z,24.20
2017-08-22T22:49:56.912Z,24.10
2017-08-22T22:52:24.386Z,24.10
2017-08-22T22:54:51.849Z,24.00
2017-08-22T22:57:19.318Z,24.00
2017-08-22T22:59:46.773Z,24.00
2017-08-22T23:02:14.230Z,24.00
2017-08-22T23:04:41.678Z,23.90
2017-08-22T23:07:09.137Z,23.90
2017-08-22T23:09:36.590Z,23.90
2017-08-22T23:12:04.050Z,23.90
2017-08-22T23:14:31.505Z,23.80
2017-08-22T23:16:58.979Z,23.80
2017-08-22T23:19:26.421Z,23.80
2017-08-22T23:21:53.887Z,23.70
2017-08-22T23:24:21.335Z,23.70
2017-08-22T23:26:48.798Z,23.70
2017-08-22T23:29:16.250Z,23.70
2017-08-22T23:31:43.718Z,23.60
2017-08-22T23:34:11.162Z,23.60
2017-08-22T23:36:38.618Z,23.60
2017-08-22T23:39:06.085Z,23.60
2017-08-22T23:41:33.530Z,23.50
2017-08-22T23:44:00.990Z,23.50
2017-08-22T23:46:28.458Z,23.50
2017-08-22T23:48:55.902Z,23.40
2017-08-22T23:51:23.383Z,23.40
2017-08-22T23:53:50.829Z,23.40
2017-08-22T23:56:18.275Z,23.30
2017-08-22T23:58:45.746Z,23.30
